Time;durP1;ratioP1;P1;durP2;ratioP2;P2;SDS_P1;SDS_P2;PMS_P1;PMS_P2;Temp;Humidity;BMP_temperature;BMP_pressure;BME280_temperature;BME280_humidity;BME280_pressure;Samples;Min_cycle;Max_cycle;Signal;HPM_P1;HPM_P2
2023/08/10 00:02:14;;;;;;;0.45;0.43;;;;;;;15.40;86.53;101174.88;5021465;28;20498;-66
2023/08/10 00:04:39;;;;;;;5.72;0.80;;;;;;;15.39;86.55;101173.28;5023425;28;20186;-67
2023/08/10 00:07:05;;;;;;;1.48;0.55;;;;;;;15.42;86.31;101178.03;5023196;28;20056;-66
2023/08/10 00:09:31;;;;;;;0.40;0.28;;;;;;;15.35;86.23;101181.41;5018718;28;20076;-67
2023/08/10 00:11:57;;;;;;;1.10;0.60;;;;;;;15.28;86.40;101175.94;5025775;28;20039;-67
2023/08/10 00:14:22;;;;;;;4.05;0.73;;;;;;;15.30;86.70;101187.19;5025213;28;20021;-65
2023/08/10 00:16:47;;;;;;;1.70;0.30;;;;;;;15.29;86.59;101187.56;5024742;28;20076;-65
2023/08/10 00:19:13;;;;;;;0.10;0.10;;;;;;;15.28;87.32;101186.00;5028176;28;20117;-65
2023/08/10 00:21:39;;;;;;;0.75;0.55;;;;;;;15.34;86.41;101185.28;5012208;28;20099;-66
2023/08/10 00:24:04;;;;;;;2.13;0.80;;;;;;;15.37;86.71;101181.81;5024628;28;20037;-65
2023/08/10 00:26:30;;;;;;;0.55;0.35;;;;;;;15.32;86.73;101182.19;5020727;28;20045;-65
2023/08/10 00:28:56;;;;;;;0.60;0.57;;;;;;;15.41;86.45;101189.22;5008773;28;20021;-65
2023/08/10 00:31:21;;;;;;;1.95;0.52;;;;;;;15.34;86.71;101185.28;5005362;28;20426;-65
2023/08/10 00:33:46;;;;;;;0.35;0.35;;;;;;;15.26;86.54;101186.38;5027272;28;20398;-65
2023/08/10 00:36:12;;;;;;;0.30;0.30;;;;;;;15.27;86.76;101187.91;5017482;28;20430;-65
2023/08/10 00:38:38;;;;;;;1.35;0.65;;;;;;;15.27;86.97;101181.72;5017929;28;20453;-66
2023/08/10 00:41:04;;;;;;;0.63;0.40;;;;;;;15.22;87.39;101192.91;5011088;28;20401;-65
2023/08/10 00:43:30;;;;;;;1.05;0.30;;;;;;;15.23;87.69;101187.09;5010662;28;20112;-65
2023/08/10 00:45:55;;;;;;;0.28;0.20;;;;;;;15.26;87.57;101180.16;5023593;28;20037;-65
2023/08/10 00:48:23;;;;;;;0.30;0.30;;;;;;;15.26;88.03;101175.53;5005367;28;20552;-65
2023/08/10 00:50:49;;;;;;;0.52;0.35;;;;;;;15.28;88.01;101183.28;5001792;28;20124;-65
2023/08/10 00:53:16;;;;;;;2.97;0.70;;;;;;;15.22;88.43;101187.47;5022205;28;20124;-65
2023/08/10 00:55:43;;;;;;;2.40;0.88;;;;;;;15.24;89.29;101187.88;4996889;28;20125;-67
2023/08/10 00:58:11;;;;;;;0.90;0.50;;;;;;;15.24;89.32;101191.41;5027757;28;20274;-65
2023/08/10 01:00:37;;;;;;;0.40;0.40;;;;;;;15.26;89.02;101189.09;5024929;28;20037;-66
2023/08/10 01:03:04;;;;;;;0.82;0.55;;;;;;;15.25;89.50;101186.75;5026345;28;20394;-67
2023/08/10 01:05:38;;;;;;;0.52;0.47;;;;;;;15.26;88.92;101188.31;4999942;28;20037;-66
2023/08/10 01:08:12;;;;;;;0.50;0.38;;;;;;;15.20;89.80;101196.00;5028118;28;20044;-65
2023/08/10 01:10:47;;;;;;;0.60;0.50;;;;;;;15.18;89.85;101187.44;5022069;28;20381;-66
2023/08/10 01:13:22;;;;;;;1.15;0.60;;;;;;;15.16;89.56;101186.25;5004678;28;20461;-65
2023/08/10 01:16:01;;;;;;;1.60;0.40;;;;;;;15.14;89.90;101197.47;5019200;28;20057;-65
2023/08/10 01:18:27;;;;;;;0.40;0.40;;;;;;;15.14;89.94;101196.69;5025492;28;20076;-65
2023/08/10 01:20:59;;;;;;;0.73;0.40;;;;;;;15.13;89.35;101195.16;5003142;28;20457;-66
2023/08/10 01:23:40;;;;;;;0.95;0.68;;;;;;;15.21;89.39;101196.78;5015826;28;20033;-64
2023/08/10 01:26:06;;;;;;;0.57;0.45;;;;;;;15.13;88.42;101206.78;5005473;28;20037;-65
2023/08/10 01:28:33;;;;;;;0.50;0.50;;;;;;;15.11;89.24;101208.31;5024383;28;20033;-65
2023/08/10 01:31:02;;;;;;;0.40;0.40;;;;;;;15.17;89.08;101210.31;5018209;28;20030;-66
2023/08/10 01:33:29;;;;;;;0.50;0.43;;;;;;;15.19;89.08;101208.00;5019175;28;20025;-64
2023/08/10 01:35:54;;;;;;;0.28;0.28;;;;;;;15.18;89.20;101211.88;5006935;28;20048;-65
2023/08/10 01:38:20;;;;;;;0.70;0.57;;;;;;;15.26;88.82;101218.16;5027495;28;20049;-67
2023/08/10 01:40:47;;;;;;;0.60;0.40;;;;;;;15.19;89.72;101213.41;5001188;28;20048;-66
2023/08/10 01:43:13;;;;;;;0.47;0.47;;;;;;;15.19;90.24;101209.94;5024771;28;20099;-66
2023/08/10 01:45:44;;;;;;;0.60;0.40;;;;;;;15.20;90.23;101211.50;5020018;28;20038;-65
2023/08/10 01:48:20;;;;;;;0.45;0.30;;;;;;;15.10;90.10;101212.94;5006507;28;20086;-65
2023/08/10 01:50:49;;;;;;;1.17;0.50;;;;;;;15.12;90.33;101216.06;5005700;28;20095;-66
2023/08/10 01:53:20;;;;;;;3.45;0.80;;;;;;;15.02;89.67;101213.25;5019096;28;20033;-67
2023/08/10 01:55:46;;;;;;;0.43;0.43;;;;;;;15.03;90.16;101210.16;5005333;28;20425;-68
2023/08/10 01:58:13;;;;;;;0.65;0.47;;;;;;;15.06;89.34;101214.06;4998115;28;20034;-65
2023/08/10 02:00:39;;;;;;;0.77;0.47;;;;;;;15.06;89.78;101212.13;5001101;28;20053;-65
2023/08/10 02:03:05;;;;;;;0.77;0.75;;;;;;;14.99;89.99;101211.25;5023140;28;20402;-65
2023/08/10 02:05:31;;;;;;;0.90;0.80;;;;;;;14.95;90.30;101199.59;5004838;28;20553;-65
2023/08/10 02:07:56;;;;;;;0.75;0.60;;;;;;;14.96;90.43;101201.16;5020396;28;20147;-65
2023/08/10 02:10:22;;;;;;;0.60;0.50;;;;;;;15.06;90.29;101211.38;5012236;28;20031;-65
2023/08/10 02:12:47;;;;;;;0.22;0.22;;;;;;;14.96;90.63;101204.63;5018476;28;21377;-65
2023/08/10 02:15:16;;;;;;;0.57;0.43;;;;;;;14.96;91.32;101206.59;5003772;28;20029;-64
2023/08/10 02:17:41;;;;;;;0.88;0.65;;;;;;;15.02;91.28;101210.53;5008091;28;20034;-64
2023/08/10 02:20:12;;;;;;;0.85;0.32;;;;;;;15.04;91.51;101203.56;5008009;28;20504;-64
2023/08/10 02:22:42;;;;;;;1.05;0.47;;;;;;;15.07;91.32;101207.47;5008357;28;20068;-65
2023/08/10 02:25:09;;;;;;;0.38;0.32;;;;;;;15.12;90.90;101210.63;5008290;28;20036;-65
2023/08/10 02:27:35;;;;;;;0.52;0.43;;;;;;;15.12;90.96;101216.06;5029610;28;20397;-67
2023/08/10 02:30:02;;;;;;;2.08;0.98;;;;;;;15.08;91.29;101217.16;5021197;28;20032;-65
2023/08/10 02:32:28;;;;;;;0.70;0.52;;;;;;;15.15;91.17;101219.97;5022969;28;20394;-65
2023/08/10 02:34:53;;;;;;;1.08;0.68;;;;;;;15.07;91.57;101221.06;5011775;28;20133;-66
2023/08/10 02:37:19;;;;;;;0.77;0.35;;;;;;;15.11;91.12;101219.94;5005121;28;20040;-65
2023/08/10 02:39:44;;;;;;;0.75;0.50;;;;;;;15.08;91.42;101217.97;5003344;28;20017;-66
2023/08/10 02:42:10;;;;;;;0.35;0.35;;;;;;;15.07;90.82;101218.34;5030373;28;20083;-64
2023/08/10 02:44:36;;;;;;;0.80;0.45;;;;;;;15.01;90.81;101215.19;5001582;28;20037;-65
2023/08/10 02:47:02;;;;;;;1.52;0.60;;;;;;;14.98;90.47;101215.16;5024489;28;20041;-65
2023/08/10 02:49:27;;;;;;;0.65;0.55;;;;;;;14.92;90.50;101219.34;5010336;28;20056;-65
2023/08/10 02:51:54;;;;;;;0.90;0.57;;;;;;;14.95;90.57;101213.16;5024407;28;20025;-64
2023/08/10 02:54:19;;;;;;;1.08;0.90;;;;;;;14.93;90.35;101218.97;5082222;22;20472;-66
2023/08/10 02:56:45;;;;;;;0.70;0.70;;;;;;;14.87;90.34;101220.44;5006005;28;20397;-66
2023/08/10 02:59:10;;;;;;;0.57;0.55;;;;;;;14.79;90.27;101218.03;5012124;28;20112;-66
2023/08/10 03:01:35;;;;;;;1.33;0.50;;;;;;;14.81;90.01;101218.41;5014599;28;20021;-66
2023/08/10 03:04:01;;;;;;;0.65;0.40;;;;;;;14.71;89.72;101209.00;5013195;28;20052;-66
2023/08/10 03:06:28;;;;;;;2.10;0.45;;;;;;;14.69;89.91;101224.09;5046390;28;20065;-66
2023/08/10 03:08:53;;;;;;;0.45;0.45;;;;;;;14.64;90.18;101217.03;5042126;28;20112;-66
2023/08/10 03:11:19;;;;;;;1.88;0.70;;;;;;;14.66;90.36;101232.94;5034997;28;20120;-66
2023/08/10 03:13:45;;;;;;;0.73;0.30;;;;;;;14.72;89.79;101239.59;5034007;28;20033;-65
2023/08/10 03:16:10;;;;;;;0.77;0.57;;;;;;;14.72;90.20;101231.47;5026865;28;20031;-66
2023/08/10 03:18:37;;;;;;;2.13;0.57;;;;;;;14.65;90.06;101239.53;5024488;28;20513;-66
2023/08/10 03:21:03;;;;;;;0.93;0.80;;;;;;;14.56;89.75;101237.06;5018032;28;20029;-66
2023/08/10 03:23:28;;;;;;;0.22;0.22;;;;;;;14.48;90.40;101234.66;5029089;28;20474;-66
2023/08/10 03:25:54;;;;;;;0.68;0.40;;;;;;;14.45;90.45;101236.94;5042030;28;20417;-66
2023/08/10 03:28:19;;;;;;;3.20;0.50;;;;;;;14.44;90.55;101234.56;5032738;28;20119;-67
2023/08/10 03:30:45;;;;;;;0.57;0.57;;;;;;;14.46;90.76;101230.34;5052414;28;20059;-66
2023/08/10 03:33:10;;;;;;;0.55;0.55;;;;;;;14.47;90.30;101231.16;5029601;28;20041;-66
2023/08/10 03:35:38;;;;;;;0.75;0.52;;;;;;;14.48;90.28;101223.81;5052131;28;20065;-66
2023/08/10 03:38:04;;;;;;;1.73;0.65;;;;;;;14.51;90.28;101231.97;5034908;28;20059;-66
2023/08/10 03:40:29;;;;;;;0.93;0.57;;;;;;;14.44;90.24;101218.31;5032892;28;20155;-66
2023/08/10 03:42:54;;;;;;;2.00;0.68;;;;;;;14.42;90.45;101226.81;5051209;28;20538;-67
2023/08/10 03:45:21;;;;;;;0.90;0.47;;;;;;;14.44;89.92;101229.16;5016874;28;20049;-65
2023/08/10 03:47:47;;;;;;;1.92;0.55;;;;;;;14.44;90.23;101240.78;5041987;28;20119;-66
2023/08/10 03:50:12;;;;;;;0.40;0.40;;;;;;;14.41;90.01;101246.94;5032605;28;20034;-66
2023/08/10 03:52:38;;;;;;;3.45;0.68;;;;;;;14.39;90.33;101243.03;5013553;28;20049;-66
2023/08/10 03:55:03;;;;;;;1.15;0.70;;;;;;;14.37;90.04;101240.69;5015233;28;20387;-66
2023/08/10 03:57:29;;;;;;;0.65;0.60;;;;;;;14.32;90.21;101246.41;5017258;28;20037;-66
2023/08/10 03:59:54;;;;;;;0.70;0.65;;;;;;;14.35;89.90;101242.97;5025560;28;20029;-66
2023/08/10 04:02:20;;;;;;;0.50;0.50;;;;;;;14.30;89.56;101240.56;5016898;28;20108;-66
2023/08/10 04:04:45;;;;;;;0.30;0.30;;;;;;;14.31;90.09;101250.28;5046192;28;20451;-66
2023/08/10 04:07:12;;;;;;;1.40;0.55;;;;;;;14.25;90.44;101246.28;5047961;28;20028;-66
2023/08/10 04:09:37;;;;;;;0.88;0.77;;;;;;;14.29;90.81;101243.66;5049030;28;20071;-66
2023/08/10 04:12:03;;;;;;;0.60;0.60;;;;;;;14.33;90.60;101247.19;5026229;28;20036;-66
2023/08/10 04:14:29;;;;;;;0.98;0.70;;;;;;;14.35;90.57;101239.47;5018566;28;20033;-66
2023/08/10 04:16:54;;;;;;;5.05;0.60;;;;;;;14.35;91.19;101242.97;5026898;28;20026;-66
2023/08/10 04:19:20;;;;;;;0.75;0.50;;;;;;;14.36;91.63;101236.41;5027541;28;20526;-66
2023/08/10 04:21:45;;;;;;;1.45;0.57;;;;;;;14.37;92.92;101246.13;5033861;28;20037;-66
2023/08/10 04:24:11;;;;;;;0.52;0.52;;;;;;;14.40;92.79;101245.38;5034424;28;20022;-66
2023/08/10 04:26:36;;;;;;;1.88;0.45;;;;;;;14.43;93.35;101241.16;5041137;28;20038;-66
2023/08/10 04:29:03;;;;;;;0.82;0.50;;;;;;;14.48;93.32;101248.19;5034888;28;20041;-66
2023/08/10 04:31:28;;;;;;;1.05;0.60;;;;;;;14.58;93.27;101244.81;5029561;28;20087;-66
2023/08/10 04:33:54;;;;;;;0.40;0.38;;;;;;;14.62;93.62;101246.44;5049554;28;20505;-66
2023/08/10 04:36:19;;;;;;;0.82;0.40;;;;;;;14.62;93.64;101248.38;5051302;28;20025;-66
2023/08/10 04:38:45;;;;;;;0.30;0.30;;;;;;;14.63;93.96;101253.44;5044161;28;20496;-66
2023/08/10 04:41:10;;;;;;;2.92;0.80;;;;;;;14.64;94.63;101259.63;5026268;28;20037;-66
2023/08/10 04:43:36;;;;;;;1.40;0.82;;;;;;;14.74;94.51;101269.84;5050225;28;20120;-66
2023/08/10 04:46:01;;;;;;;0.43;0.43;;;;;;;14.81;94.15;101264.50;5048294;28;20020;-65
2023/08/10 04:48:27;;;;;;;0.60;0.47;;;;;;;14.81;94.00;101265.28;5024834;28;20029;-66
2023/08/10 04:50:52;;;;;;;1.10;0.52;;;;;;;14.84;94.32;101264.56;5031382;28;20037;-67
2023/08/10 04:53:18;;;;;;;0.68;0.38;;;;;;;14.91;94.21;101258.44;5050026;28;20654;-66
2023/08/10 04:55:43;;;;;;;0.55;0.52;;;;;;;14.95;94.34;101267.41;5047580;28;20103;-66
2023/08/10 04:58:09;;;;;;;3.80;0.30;;;;;;;14.94;94.90;101260.44;5050080;28;20484;-66
2023/08/10 05:00:34;;;;;;;2.20;0.65;;;;;;;15.03;94.65;101260.91;5039076;28;20866;-66
2023/08/10 05:02:59;;;;;;;1.10;0.73;;;;;;;15.02;94.65;101262.84;5045274;28;20085;-66
2023/08/10 05:05:25;;;;;;;1.10;0.57;;;;;;;15.06;94.93;101271.81;5029379;28;20397;-66
2023/08/10 05:07:50;;;;;;;0.65;0.45;;;;;;;15.12;94.86;101266.84;5051071;28;20027;-66
2023/08/10 05:10:16;;;;;;;1.40;0.70;;;;;;;15.17;94.78;101277.38;5041391;28;20043;-66
2023/08/10 05:12:41;;;;;;;2.50;0.95;;;;;;;15.21;94.44;101278.19;5021572;28;20033;-66
2023/08/10 05:15:09;;;;;;;3.47;0.70;;;;;;;15.22;94.80;101277.03;5050422;28;20025;-66
2023/08/10 05:17:35;;;;;;;1.00;0.73;;;;;;;15.26;94.94;101277.84;5020060;28;20041;-67
2023/08/10 05:20:06;;;;;;;1.27;0.70;;;;;;;15.30;94.68;101282.19;5030637;28;20099;-67
2023/08/10 05:22:31;;;;;;;1.23;0.60;;;;;;;15.39;93.87;101285.38;5031340;28;20569;-66
2023/08/10 05:24:57;;;;;;;2.55;0.70;;;;;;;15.40;94.81;101286.16;5046679;28;20039;-66
2023/08/10 05:27:22;;;;;;;0.73;0.50;;;;;;;15.43;94.56;101284.69;5047315;28;20037;-66
2023/08/10 05:29:48;;;;;;;1.25;0.98;;;;;;;15.46;94.53;101287.44;5031639;28;20033;-66
2023/08/10 05:32:13;;;;;;;0.77;0.77;;;;;;;15.56;94.26;101286.75;5049473;28;20020;-66
2023/08/10 05:34:39;;;;;;;6.30;0.82;;;;;;;15.60;94.02;101294.94;5050537;28;20029;-66
2023/08/10 05:37:04;;;;;;;0.38;0.38;;;;;;;15.63;93.73;101294.19;5039200;28;20029;-66
2023/08/10 05:39:30;;;;;;;0.85;0.55;;;;;;;15.74;93.56;101289.63;5043561;28;20029;-66
2023/08/10 05:41:55;;;;;;;0.45;0.45;;;;;;;15.81;92.94;101289.72;5050235;28;20395;-67
2023/08/10 05:44:21;;;;;;;0.68;0.57;;;;;;;15.90;92.52;101290.97;5051718;28;20489;-66
2023/08/10 05:46:48;;;;;;;3.80;0.85;;;;;;;15.91;91.74;101294.47;5049306;28;20063;-66
2023/08/10 05:49:13;;;;;;;0.93;0.70;;;;;;;15.96;91.71;101292.19;5042780;28;20084;-66
2023/08/10 05:51:39;;;;;;;2.85;1.00;;;;;;;15.98;91.35;101292.59;5038655;28;20515;-65
2023/08/10 05:54:05;;;;;;;1.75;0.88;;;;;;;15.99;90.85;101296.06;5031210;28;20029;-66
2023/08/10 05:56:30;;;;;;;14.45;0.90;;;;;;;15.97;90.49;101299.16;5020665;28;20033;-66
2023/08/10 05:58:55;;;;;;;0.50;0.50;;;;;;;15.99;90.68;101306.94;5044835;28;20025;-66
2023/08/10 06:01:22;;;;;;;3.85;0.77;;;;;;;16.09;90.49;101304.31;5050791;28;20025;-66
2023/08/10 06:03:48;;;;;;;0.70;0.55;;;;;;;16.35;90.46;101297.13;5053151;28;20032;-67
2023/08/10 06:06:13;;;;;;;4.53;0.55;;;;;;;16.59;89.17;101304.72;5053570;28;20481;-66
2023/08/10 06:08:39;;;;;;;1.83;1.38;;;;;;;16.73;89.16;101312.97;5049196;28;20036;-67
2023/08/10 06:11:05;;;;;;;3.13;0.70;;;;;;;16.97;89.06;101307.66;5046910;28;20617;-67
2023/08/10 06:13:31;;;;;;;0.85;0.65;;;;;;;17.18;88.33;101309.69;5047371;28;20500;-66
2023/08/10 06:15:57;;;;;;;2.00;0.57;;;;;;;17.26;87.74;101303.13;5050949;28;20399;-67
2023/08/10 06:18:22;;;;;;;0.65;0.40;;;;;;;17.23;86.50;101314.75;5038684;28;20132;-66
2023/08/10 06:20:48;;;;;;;0.45;0.40;;;;;;;17.29;86.10;101318.69;5040872;28;20044;-66
2023/08/10 06:23:13;;;;;;;3.25;1.35;;;;;;;17.43;86.43;101318.72;5036506;28;20029;-67
2023/08/10 06:25:40;;;;;;;0.77;0.70;;;;;;;17.52;85.97;101324.63;5039882;28;20111;-66
2023/08/10 06:28:06;;;;;;;2.08;0.80;;;;;;;17.79;85.64;101312.22;5048718;28;20057;-66
2023/08/10 06:30:32;;;;;;;1.10;0.63;;;;;;;18.04;85.17;101323.16;5053292;28;20060;-66
2023/08/10 06:32:58;;;;;;;0.57;0.38;;;;;;;18.22;84.98;101321.22;5046695;28;20482;-65
2023/08/10 06:35:24;;;;;;;0.55;0.55;;;;;;;18.38;84.03;101326.28;5048214;28;20111;-66
2023/08/10 06:37:50;;;;;;;1.00;0.40;;;;;;;18.53;83.84;101317.72;5037431;28;20591;-67
2023/08/10 06:40:16;;;;;;;5.70;0.70;;;;;;;18.81;83.29;101325.06;5031239;28;20045;-65
2023/08/10 06:42:42;;;;;;;0.45;0.45;;;;;;;19.01;82.08;101323.44;5046686;28;20045;-66
2023/08/10 06:45:27;;;;;;;0.95;0.65;;;;;;;19.21;81.08;101330.00;5043315;28;20037;-66
2023/08/10 06:47:53;;;;;;;0.65;0.55;;;;;;;19.40;80.93;101335.03;5035566;28;20037;-66
2023/08/10 06:50:18;;;;;;;0.68;0.20;;;;;;;19.44;80.06;101343.19;5018785;28;20490;-66
2023/08/10 06:52:45;;;;;;;0.30;0.30;;;;;;;19.44;78.96;101327.59;5048531;28;20017;-66
2023/08/10 06:55:11;;;;;;;1.10;0.40;;;;;;;19.43;77.74;101322.53;5046946;28;20040;-66
2023/08/10 06:57:37;;;;;;;4.40;0.47;;;;;;;19.47;77.35;101329.50;5052851;28;20068;-66
2023/08/10 07:00:07;;;;;;;0.50;0.40;;;;;;;19.65;77.67;101326.69;5047471;28;20041;-66
2023/08/10 07:02:34;;;;;;;6.25;1.00;;;;;;;19.82;77.50;101334.03;5048462;28;20033;-66
2023/08/10 07:05:00;;;;;;;0.95;0.30;;;;;;;20.09;76.71;101332.25;5044001;28;20045;-66
2023/08/10 07:07:26;;;;;;;0.98;0.30;;;;;;;20.30;76.29;101334.06;5040805;28;20109;-66
2023/08/10 07:09:51;;;;;;;2.58;0.32;;;;;;;20.42;75.52;101339.81;5039511;28;20033;-66
2023/08/10 07:12:17;;;;;;;0.75;0.30;;;;;;;20.51;74.71;101337.41;5018886;28;20068;-66
2023/08/10 07:14:42;;;;;;;0.25;0.20;;;;;;;20.70;73.18;101338.78;5050446;28;20028;-67
2023/08/10 07:17:08;;;;;;;0.95;0.50;;;;;;;20.92;72.26;101342.06;5039970;28;20108;-66
2023/08/10 07:19:35;;;;;;;4.57;0.63;;;;;;;20.80;71.59;101332.41;5041586;28;20037;-66
2023/08/10 07:22:00;;;;;;;3.67;0.85;;;;;;;20.80;71.22;101342.59;5044211;28;20029;-66
2023/08/10 07:24:25;;;;;;;1.13;0.22;;;;;;;20.87;69.34;101346.03;5048952;28;20029;-66
2023/08/10 07:26:54;;;;;;;0.98;0.40;;;;;;;20.92;68.99;101339.34;5044933;28;20122;-66
2023/08/10 07:29:20;;;;;;;1.23;0.20;;;;;;;21.06;69.33;101344.69;5048205;28;20114;-66
2023/08/10 07:31:46;;;;;;;1.95;0.38;;;;;;;21.25;68.81;101346.81;5051495;28;20060;-67
2023/08/10 07:34:12;;;;;;;3.20;0.30;;;;;;;21.49;67.28;101351.97;5049489;28;20075;-66
2023/08/10 07:36:37;;;;;;;1.65;0.57;;;;;;;21.67;65.76;101350.94;5051530;28;20509;-66
2023/08/10 07:39:03;;;;;;;1.10;0.30;;;;;;;21.87;64.16;101362.84;5046901;28;20398;-66
2023/08/10 07:41:29;;;;;;;0.95;0.35;;;;;;;21.84;62.96;101358.97;5037681;28;20068;-66
2023/08/10 07:43:54;;;;;;;5.32;0.50;;;;;;;21.93;62.86;101358.44;5026213;28;20049;-66
2023/08/10 07:46:20;;;;;;;0.47;0.45;;;;;;;22.11;61.96;101354.22;5045474;28;20424;-66
2023/08/10 07:48:46;;;;;;;0.40;0.22;;;;;;;22.17;62.02;101355.31;5028119;28;20612;-66
2023/08/10 07:51:11;;;;;;;0.20;0.13;;;;;;;22.12;59.24;101361.28;5042604;28;20021;-66
2023/08/10 07:53:37;;;;;;;3.22;1.00;;;;;;;22.10;59.31;101355.44;5035242;28;20057;-66
2023/08/10 07:56:02;;;;;;;2.45;0.30;;;;;;;22.15;59.42;101354.97;5055077;28;20033;-67
2023/08/10 07:58:27;;;;;;;0.10;0.10;;;;;;;22.34;59.30;101354.25;5027498;28;20040;-66
2023/08/10 08:00:53;;;;;;;1.13;0.10;;;;;;;22.48;57.72;101360.69;5047678;28;20047;-66
2023/08/10 08:03:18;;;;;;;0.20;0.13;;;;;;;22.52;57.17;101362.19;5047400;28;20498;-66
2023/08/10 08:05:44;;;;;;;1.00;0.50;;;;;;;22.64;58.28;101369.84;5042997;28;20021;-67
2023/08/10 08:08:09;;;;;;;0.60;0.30;;;;;;;22.89;57.66;101359.19;5037415;28;20486;-66
2023/08/10 08:10:36;;;;;;;2.42;0.35;;;;;;;22.91;56.84;101356.00;5038275;28;20041;-66
2023/08/10 08:13:03;;;;;;;2.50;0.55;;;;;;;23.06;56.72;101365.53;5038146;28;20032;-66
2023/08/10 08:15:29;;;;;;;0.57;0.30;;;;;;;23.25;55.59;101360.03;5031995;28;20398;-67
2023/08/10 08:18:34;;;;;;;0.93;0.20;;;;;;;23.52;54.88;101364.63;5025794;28;20179;-66
2023/08/10 08:21:00;;;;;;;0.52;0.30;;;;;;;23.64;54.67;101369.47;5041808;28;20393;-66
2023/08/10 08:23:25;;;;;;;1.10;0.45;;;;;;;23.60;54.65;101366.00;5018265;28;20013;-67
2023/08/10 08:25:51;;;;;;;1.17;0.30;;;;;;;23.73;53.79;101369.69;5036016;28;20095;-66
2023/08/10 08:28:16;;;;;;;0.47;0.32;;;;;;;23.78;53.26;101363.66;5029207;28;20107;-67
2023/08/10 08:30:42;;;;;;;3.17;0.30;;;;;;;23.73;53.17;101370.44;5032598;28;20072;-67
2023/08/10 08:33:09;;;;;;;0.40;0.30;;;;;;;23.80;53.52;101366.75;5048749;28;20021;-66
2023/08/10 08:35:35;;;;;;;1.50;0.63;;;;;;;23.47;53.34;101374.16;5046632;28;20029;-67
2023/08/10 08:38:00;;;;;;;0.40;0.25;;;;;;;23.13;54.06;101368.16;5037844;28;20116;-66
2023/08/10 08:40:26;;;;;;;3.95;0.40;;;;;;;23.08;54.24;101363.91;5032207;28;20037;-67
2023/08/10 08:42:52;;;;;;;0.15;0.10;;;;;;;23.29;54.37;101371.75;5050113;28;20017;-66
2023/08/10 08:45:18;;;;;;;1.70;0.32;;;;;;;23.44;53.86;101372.25;5047535;28;20036;-67
2023/08/10 08:47:44;;;;;;;1.48;0.85;;;;;;;23.48;52.25;101372.19;5021551;28;20029;-67
2023/08/10 08:50:11;;;;;;;3.83;0.30;;;;;;;23.58;51.82;101373.91;5048817;28;20041;-66
2023/08/10 08:52:39;;;;;;;1.70;0.22;;;;;;;23.66;51.27;101370.59;5045677;28;20357;-67
2023/08/10 08:55:07;;;;;;;1.42;1.13;;;;;;;23.89;51.33;101370.47;5055530;22;20072;-68
2023/08/10 08:57:32;;;;;;;0.20;0.20;;;;;;;24.29;50.04;101378.63;5047136;28;20516;-67
2023/08/10 08:59:59;;;;;;;2.13;0.20;;;;;;;24.52;49.54;101375.69;5050872;28;20111;-67
2023/08/10 09:02:25;;;;;;;1.63;0.30;;;;;;;24.87;48.18;101370.03;5036421;28;20730;-67
2023/08/10 09:04:51;;;;;;;1.05;0.40;;;;;;;24.92;47.55;101374.25;5034043;28;20045;-67
2023/08/10 09:07:17;;;;;;;0.10;0.10;;;;;;;25.03;47.60;101372.75;5022727;28;20057;-67
2023/08/10 09:09:43;;;;;;;5.28;0.22;;;;;;;25.00;47.12;101381.13;4994882;28;20060;-68
2023/08/10 09:12:34;;;;;;;0.13;0.13;;;;;;;24.79;47.22;101368.69;4999875;28;20120;-67
2023/08/10 09:15:11;;;;;;;0.30;0.30;;;;;;;24.71;46.85;101380.28;5019457;28;20057;-67
2023/08/10 09:17:42;;;;;;;0.30;0.20;;;;;;;24.85;47.77;101364.16;5017086;28;20072;-67
2023/08/10 09:20:08;;;;;;;0.40;0.20;;;;;;;25.08;47.43;101370.66;5016972;28;20026;-67
2023/08/10 09:22:39;;;;;;;0.85;0.20;;;;;;;25.16;47.21;101361.75;4996518;28;20520;-67
2023/08/10 09:25:06;;;;;;;0.40;0.30;;;;;;;25.20;46.87;101372.69;5030896;28;20038;-68
2023/08/10 09:27:32;;;;;;;0.73;0.30;;;;;;;25.28;47.33;101379.56;5015531;28;20036;-67
2023/08/10 09:30:03;;;;;;;0.43;0.20;;;;;;;25.27;47.15;101378.78;5028114;28;20108;-67
2023/08/10 09:32:29;;;;;;;0.45;0.30;;;;;;;25.58;46.67;101373.56;4999038;28;20058;-64
2023/08/10 09:34:55;;;;;;;2.00;0.52;;;;;;;25.77;45.33;101370.59;5015645;28;20042;-66
2023/08/10 09:37:20;;;;;;;0.38;0.20;;;;;;;26.05;45.09;101370.94;5004026;28;20037;-66
2023/08/10 09:39:46;;;;;;;3.88;0.28;;;;;;;25.95;45.83;101370.06;5016729;28;20029;-66
2023/08/10 09:42:12;;;;;;;2.00;0.35;;;;;;;25.65;46.85;101371.34;5015541;28;20042;-67
2023/08/10 09:44:47;;;;;;;1.33;0.30;;;;;;;25.40;47.41;101373.31;5025368;28;20048;-66
2023/08/10 09:47:14;;;;;;;3.13;0.30;;;;;;;25.14;47.61;101371.69;5023000;28;20025;-66
2023/08/10 09:50:05;;;;;;;0.13;0.10;;;;;;;25.15;47.00;101364.94;5037482;28;20030;-66
2023/08/10 09:52:34;;;;;;;3.35;0.17;;;;;;;25.42;46.43;101365.34;5027862;28;20063;-66
2023/08/10 09:54:59;;;;;;;0.30;0.20;;;;;;;25.61;46.51;101375.47;5035715;28;20490;-67
2023/08/10 09:57:27;;;;;;;0.35;0.22;;;;;;;25.79;46.05;101365.41;5022706;28;20076;-67
2023/08/10 09:59:54;;;;;;;0.30;0.17;;;;;;;25.93;46.30;101369.72;5011668;28;20076;-64
2023/08/10 10:02:21;;;;;;;0.17;0.15;;;;;;;26.16;46.27;101368.63;5016753;28;20034;-65
2023/08/10 10:04:47;;;;;;;2.67;0.30;;;;;;;26.40;44.27;101365.03;5034984;28;20477;-66
2023/08/10 10:07:14;;;;;;;1.75;0.28;;;;;;;26.60;46.52;101373.03;5024638;28;20486;-67
2023/08/10 10:09:43;;;;;;;1.60;0.10;;;;;;;26.82;45.60;101373.13;5019738;28;20486;-66
2023/08/10 10:12:13;;;;;;;0.55;0.30;;;;;;;26.78;44.32;101360.19;5033706;28;20029;-67
2023/08/10 10:14:47;;;;;;;3.70;0.30;;;;;;;26.67;44.27;101362.50;5011413;28;20087;-67
2023/08/10 10:17:17;;;;;;;2.03;0.40;;;;;;;26.60;44.47;101359.22;5001828;28;20284;-67
2023/08/10 10:19:43;;;;;;;0.30;0.10;;;;;;;26.48;44.52;101366.34;5025598;28;20136;-67
2023/08/10 10:22:10;;;;;;;1.00;0.47;;;;;;;26.41;44.35;101363.03;5030038;28;20641;-67
2023/08/10 10:24:41;;;;;;;0.20;0.10;;;;;;;26.52;44.57;101366.22;5032726;28;20100;-64
2023/08/10 10:27:27;;;;;;;4.35;0.43;;;;;;;26.61;45.11;101366.31;5032330;28;20090;-65
2023/08/10 10:30:01;;;;;;;1.13;0.30;;;;;;;27.03;43.83;101370.38;4939595;28;20081;-65
2023/08/10 10:32:27;;;;;;;3.95;0.20;;;;;;;27.05;43.54;101365.16;4966111;28;20108;-65
2023/08/10 10:34:54;;;;;;;0.10;0.10;;;;;;;27.26;42.79;101360.84;4971360;28;20038;-64
2023/08/10 10:37:30;;;;;;;0.43;0.40;;;;;;;27.35;42.43;101363.69;4954450;28;20038;-64
2023/08/10 10:40:18;;;;;;;0.80;0.20;;;;;;;27.41;41.95;101367.44;4966543;28;20043;-64
2023/08/10 10:43:02;;;;;;;3.35;0.50;;;;;;;27.01;42.40;101358.19;4981555;28;20094;-65
2023/08/10 10:45:33;;;;;;;1.77;0.30;;;;;;;26.64;42.69;101357.13;4972007;28;20577;-64
2023/08/10 10:47:59;;;;;;;0.35;0.10;;;;;;;26.41;43.38;101369.34;4956642;28;20068;-64
2023/08/10 10:50:29;;;;;;;3.85;0.25;;;;;;;26.37;43.48;101367.91;4985109;28;20109;-64
2023/08/10 10:52:56;;;;;;;0.10;0.10;;;;;;;26.44;43.27;101360.16;4970151;28;20066;-64
2023/08/10 10:55:27;;;;;;;1.00;0.45;;;;;;;26.72;43.43;101359.22;4969019;28;20138;-64
2023/08/10 10:57:53;;;;;;;0.10;0.10;;;;;;;26.87;43.12;101362.25;4954531;28;20121;-65
2023/08/10 11:00:20;;;;;;;0.35;0.17;;;;;;;27.21;42.83;101356.66;4976813;28;20118;-65
2023/08/10 11:02:46;;;;;;;0.82;0.20;;;;;;;27.48;42.32;101358.84;4970643;28;20066;-64
2023/08/10 11:05:13;;;;;;;1.23;0.30;;;;;;;27.55;41.37;101364.09;4971392;28;20038;-64
2023/08/10 11:07:41;;;;;;;0.20;0.10;;;;;;;27.68;40.88;101357.25;5011568;28;20033;-64
2023/08/10 11:10:07;;;;;;;0.75;0.10;;;;;;;27.88;42.23;101359.63;5017451;28;20116;-65
2023/08/10 11:12:32;;;;;;;0.32;0.30;;;;;;;28.42;40.26;101359.78;5009581;28;20071;-65
2023/08/10 11:14:58;;;;;;;0.63;0.15;;;;;;;28.48;39.93;101365.50;5013455;28;20489;-65
2023/08/10 11:17:27;;;;;;;1.17;0.30;;;;;;;28.53;39.67;101360.09;5028141;28;20056;-64
2023/08/10 11:19:52;;;;;;;4.18;0.40;;;;;;;28.64;39.78;101358.91;5020144;28;20037;-67
2023/08/10 11:22:18;;;;;;;0.22;0.10;;;;;;;28.63;39.98;101363.69;5023393;28;20104;-66
2023/08/10 11:24:45;;;;;;;0.63;0.20;;;;;;;28.55;39.90;101358.91;5029305;28;20041;-65